createdAt,value
2018-03-28T00:02:05.615Z,94697.00
2018-03-28T00:04:32.294Z,94689.10
2018-03-28T00:06:59.021Z,94695.61
2018-03-28T00:09:25.914Z,94689.97
2018-03-28T00:11:52.548Z,94686.58
2018-03-28T00:14:19.187Z,94686.20
2018-03-28T00:16:45.788Z,94674.69
2018-03-28T00:19:12.472Z,94679.92
2018-03-28T00:21:39.198Z,94675.84
2018-03-28T00:24:05.868Z,94676.77
2018-03-28T00:26:32.601Z,94675.91
2018-03-28T00:29:00.653Z,94676.16
2018-03-28T00:31:25.952Z,94676.48
2018-03-28T00:33:53.987Z,94684.12
2018-03-28T00:36:19.318Z,94679.81
2018-03-28T00:38:45.910Z,94679.27
2018-03-28T00:41:12.555Z,94680.66
2018-03-28T00:43:39.250Z,94669.34
2018-03-28T00:46:09.000Z,94666.61
2018-03-28T00:48:35.735Z,94677.67
2018-03-28T00:51:02.374Z,94686.53
2018-03-28T00:53:29.010Z,94683.84
2018-03-28T00:55:55.729Z,94679.78
2018-03-28T00:58:22.403Z,94678.41
2018-03-28T01:00:49.043Z,94677.55
2018-03-28T01:03:15.995Z,94674.27
2018-03-28T01:05:42.657Z,94666.95
2018-03-28T01:08:09.330Z,94673.14
2018-03-28T01:10:36.049Z,94672.48
2018-03-28T01:13:04.658Z,94670.05
2018-03-28T01:15:29.362Z,94671.55
2018-03-28T01:17:56.126Z,94670.92
2018-03-28T01:20:22.757Z,94669.39
2018-03-28T01:22:49.468Z,94665.48
2018-03-28T01:25:16.138Z,94656.45
2018-03-28T01:27:42.785Z,94657.98
2018-03-28T01:30:09.623Z,94652.17
2018-03-28T01:32:36.230Z,94650.41
2018-03-28T01:35:02.866Z,94646.88
2018-03-28T01:37:29.536Z,94640.75
2018-03-28T01:39:56.187Z,94645.66
2018-03-28T01:42:22.936Z,94636.78
2018-03-28T01:44:49.653Z,94631.52
2018-03-28T01:47:16.348Z,94635.63
2018-03-28T01:49:42.954Z,94630.59
2018-03-28T01:52:09.670Z,94631.98
2018-03-28T01:54:37.585Z,94636.27
2018-03-28T01:57:03.064Z,94634.75
2018-03-28T01:59:29.656Z,94634.70
2018-03-28T02:01:56.332Z,94638.61
2018-03-28T02:04:22.931Z,94636.64
2018-03-28T02:06:51.159Z,94637.02
2018-03-28T02:09:17.297Z,94634.44
2018-03-28T02:11:42.940Z,94635.25
2018-03-28T02:14:09.695Z,94629.31
2018-03-28T02:16:36.366Z,94630.45
2018-03-28T02:19:03.011Z,94622.00
2018-03-28T02:21:31.757Z,94629.14
2018-03-28T02:23:56.387Z,94639.36
2018-03-28T02:26:24.792Z,94635.36
2018-03-28T02:28:49.603Z,94635.63
2018-03-28T02:31:16.316Z,94640.92
2018-03-28T02:33:42.983Z,94636.27
2018-03-28T02:36:09.637Z,94630.97
2018-03-28T02:38:36.267Z,94620.55
2018-03-28T02:41:02.964Z,94622.87
2018-03-28T02:43:29.587Z,94613.87
2018-03-28T02:45:56.255Z,94614.85
2018-03-28T02:48:25.778Z,94620.87
2018-03-28T02:50:52.517Z,94627.55
2018-03-28T02:53:19.204Z,94628.94
2018-03-28T02:55:46.104Z,94628.45
2018-03-28T02:58:12.758Z,94629.06
2018-03-28T03:00:41.991Z,94630.91
2018-03-28T03:03:08.710Z,94631.92
2018-03-28T03:05:35.351Z,94633.86
2018-03-28T03:08:02.010Z,94634.87
2018-03-28T03:10:31.193Z,94630.07
2018-03-28T03:12:57.915Z,94629.31
2018-03-28T03:15:24.604Z,94631.72
2018-03-28T03:17:51.304Z,94633.55
2018-03-28T03:20:18.029Z,94632.53
2018-03-28T03:22:44.696Z,94638.17
2018-03-28T03:25:11.345Z,94640.95
2018-03-28T03:27:38.027Z,94638.08
2018-03-28T03:30:04.699Z,94637.45
2018-03-28T03:32:31.302Z,94633.92
2018-03-28T03:34:57.985Z,94633.92
2018-03-28T03:37:24.797Z,94636.09
2018-03-28T03:39:51.477Z,94630.02
2018-03-28T03:42:18.105Z,94629.52
2018-03-28T03:44:46.911Z,94638.98
2018-03-28T03:47:11.366Z,94628.19
2018-03-28T03:49:38.120Z,94627.44
2018-03-28T03:52:04.751Z,94628.68
2018-03-28T03:54:31.480Z,94628.88
2018-03-28T03:56:58.135Z,94631.08
2018-03-28T03:59:24.825Z,94627.44
2018-03-28T04:01:51.486Z,94626.28
2018-03-28T04:04:18.093Z,94629.46
2018-03-28T04:06:44.955Z,94633.05
2018-03-28T04:09:11.616Z,94635.51
2018-03-28T04:11:38.280Z,94631.28
2018-03-28T04:14:04.888Z,94636.41
2018-03-28T04:16:31.534Z,94627.06
2018-03-28T04:18:58.213Z,94638.14
2018-03-28T04:21:24.895Z,94642.13
2018-03-28T04:23:51.598Z,94637.02
2018-03-28T04:26:18.275Z,94639.47
2018-03-28T04:28:46.290Z,94638.84
2018-03-28T04:31:11.604Z,94644.02
2018-03-28T04:33:38.286Z,94640.37
2018-03-28T04:36:04.957Z,94648.99
2018-03-28T04:38:32.727Z,94646.30
2018-03-28T04:40:59.392Z,94642.39
2018-03-28T04:43:26.085Z,94646.73
2018-03-28T04:45:53.935Z,94645.87
2018-03-28T04:48:19.475Z,94649.20
2018-03-28T04:50:46.148Z,94655.94
2018-03-28T04:53:12.776Z,94656.02
2018-03-28T04:55:39.422Z,94663.52
2018-03-28T04:58:08.915Z,94660.10
2018-03-28T05:00:35.728Z,94667.39
2018-03-28T05:03:02.482Z,94666.50
2018-03-28T05:05:29.065Z,94671.80
2018-03-28T05:07:55.714Z,94672.05
2018-03-28T05:10:22.386Z,94678.16
2018-03-28T05:12:49.044Z,94675.91
2018-03-28T05:15:15.698Z,94677.53
2018-03-28T05:17:44.382Z,94682.70
2018-03-28T05:20:13.965Z,94675.96
2018-03-28T05:22:40.794Z,94676.08
2018-03-28T05:25:07.494Z,94681.00
2018-03-28T05:27:34.167Z,94682.02
2018-03-28T05:30:01.028Z,94677.23
2018-03-28T05:32:27.622Z,94679.12
2018-03-28T05:34:54.247Z,94687.55
2018-03-28T05:37:20.911Z,94687.55
2018-03-28T05:39:47.656Z,94681.64
2018-03-28T05:42:14.259Z,94685.02
2018-03-28T05:44:40.972Z,94681.37
2018-03-28T05:47:07.576Z,94684.67
2018-03-28T05:49:34.295Z,94685.64
2018-03-28T05:52:00.941Z,94681.80
2018-03-28T05:54:27.618Z,94677.19
2018-03-28T05:56:54.337Z,94688.03
2018-03-28T05:59:20.959Z,94688.37
2018-03-28T06:01:47.602Z,94686.39
2018-03-28T06:04:14.300Z,94682.70
2018-03-28T06:06:41.039Z,94680.77
2018-03-28T06:09:07.934Z,94653.12
2018-03-28T06:11:34.649Z,94676.77
2018-03-28T06:14:01.251Z,94676.99
2018-03-28T06:16:27.947Z,94676.78
2018-03-28T06:18:57.915Z,94670.19
2018-03-28T06:21:24.667Z,94674.05
2018-03-28T06:23:51.447Z,94678.09
2018-03-28T06:26:21.425Z,94674.45
2018-03-28T06:28:48.207Z,94668.71
2018-03-28T06:31:14.815Z,94672.00
2018-03-28T06:33:41.449Z,94674.46
2018-03-28T06:36:08.118Z,94675.50
2018-03-28T06:38:34.759Z,94677.50
2018-03-28T06:41:01.410Z,94675.38
2018-03-28T06:43:28.046Z,94675.56
2018-03-28T06:45:54.689Z,94678.94
2018-03-28T06:48:21.337Z,94674.28
2018-03-28T06:50:47.977Z,94683.12
2018-03-28T06:53:14.698Z,94678.64
2018-03-28T06:55:41.340Z,94675.94
2018-03-28T06:58:08.012Z,94687.01
2018-03-28T07:00:34.598Z,94681.78
2018-03-28T07:03:01.256Z,94681.97
2018-03-28T07:05:28.001Z,94683.02
2018-03-28T07:07:54.595Z,94680.87
2018-03-28T07:10:24.169Z,94682.94
2018-03-28T07:12:50.857Z,94683.80
2018-03-28T07:15:17.516Z,94688.49
2018-03-28T07:17:44.240Z,94695.63
2018-03-28T07:20:10.979Z,94692.55
2018-03-28T07:22:37.768Z,94695.87
2018-03-28T07:25:04.502Z,94692.85
2018-03-28T07:27:31.303Z,94689.41
2018-03-28T07:29:58.163Z,94698.86
2018-03-28T07:32:27.843Z,94695.59
2018-03-28T07:34:54.579Z,94693.97
2018-03-28T07:37:23.398Z,94694.27
2018-03-28T07:39:47.916Z,94701.57
2018-03-28T07:42:14.660Z,94704.36
2018-03-28T07:44:41.401Z,94706.66
2018-03-28T07:47:08.089Z,94703.50
2018-03-28T07:49:34.776Z,94702.26
2018-03-28T07:52:01.467Z,94693.23
2018-03-28T07:54:28.135Z,94702.87
2018-03-28T07:56:54.931Z,94702.56
2018-03-28T07:59:21.537Z,94699.34
2018-03-28T08:01:48.234Z,94699.48
2018-03-28T08:04:14.836Z,94701.73
2018-03-28T08:09:08.226Z,94702.95
2018-03-28T08:11:37.843Z,94699.97
2018-03-28T08:14:04.471Z,94702.16
2018-03-28T08:16:31.120Z,94702.80
2018-03-28T08:18:57.747Z,94697.11
2018-03-28T08:21:24.411Z,94699.74
2018-03-28T08:23:51.192Z,94700.45
2018-03-28T08:26:17.835Z,94700.83
2018-03-28T08:28:44.476Z,94695.38
2018-03-28T08:31:11.211Z,94699.13
2018-03-28T08:33:37.859Z,94697.78
2018-03-28T08:36:05.947Z,94696.42
2018-03-28T08:38:32.367Z,94693.16
2018-03-28T08:40:59.041Z,94688.93
2018-03-28T08:43:25.738Z,94683.89
2018-03-28T08:45:52.971Z,94689.43
2018-03-28T08:48:19.617Z,94687.82
2018-03-28T08:50:47.636Z,94687.84
2018-03-28T08:53:13.022Z,94686.41
2018-03-28T08:55:39.659Z,94690.66
2018-03-28T08:58:06.332Z,94680.80
2018-03-28T09:00:32.984Z,94683.21
2018-03-28T09:03:02.762Z,94673.34
2018-03-28T09:05:29.408Z,94678.39
2018-03-28T09:07:59.241Z,94672.34
2018-03-28T09:10:28.019Z,94667.64
2018-03-28T09:12:52.579Z,94663.98
2018-03-28T09:15:19.182Z,94653.98
2018-03-28T09:17:47.616Z,94661.05
2018-03-28T09:20:14.301Z,94658.02
2018-03-28T09:22:40.933Z,94666.03
2018-03-28T09:25:07.581Z,94659.08
2018-03-28T09:27:34.255Z,94655.28
2018-03-28T09:30:02.624Z,94656.89
2018-03-28T09:32:27.641Z,94653.25
2018-03-28T09:34:54.402Z,94660.16
2018-03-28T09:37:20.983Z,94657.20
2018-03-28T09:39:47.639Z,94651.16
2018-03-28T09:42:14.315Z,94641.02
2018-03-28T09:44:40.917Z,94639.38
2018-03-28T09:47:07.588Z,94642.52
2018-03-28T09:49:35.544Z,94638.11
2018-03-28T09:52:00.826Z,94634.20
2018-03-28T09:54:27.507Z,94632.77
2018-03-28T09:56:54.155Z,94627.47
2018-03-28T09:59:20.889Z,94620.42
2018-03-28T10:01:47.709Z,94619.08
2018-03-28T10:04:14.370Z,94616.11
2018-03-28T10:06:41.044Z,94615.13
2018-03-28T10:09:07.816Z,94614.19
2018-03-28T10:11:34.400Z,94612.20
2018-03-28T10:14:01.114Z,94617.67
2018-03-28T10:16:27.786Z,94614.34
2018-03-28T10:18:54.528Z,94605.20
2018-03-28T10:21:21.173Z,94609.38
2018-03-28T10:23:47.994Z,94595.91
2018-03-28T10:26:14.717Z,94598.32
2018-03-28T10:28:41.429Z,94605.17
2018-03-28T10:31:08.104Z,94606.30
2018-03-28T10:33:34.792Z,94603.69
2018-03-28T10:36:01.400Z,94606.70
2018-03-28T10:38:28.123Z,94606.92
2018-03-28T10:40:54.746Z,94603.25
2018-03-28T10:43:21.386Z,94597.91
2018-03-28T10:45:48.078Z,94599.71
2018-03-28T10:48:14.710Z,94599.25
2018-03-28T10:50:41.511Z,94596.02
2018-03-28T10:53:08.443Z,94598.05
2018-03-28T10:55:37.749Z,94592.23
2018-03-28T10:58:04.374Z,94596.30
2018-03-28T11:00:31.585Z,94585.58
2018-03-28T11:02:58.861Z,94586.97
2018-03-28T11:05:25.503Z,94585.91
2018-03-28T11:07:53.350Z,94579.41
2018-03-28T11:10:18.939Z,94578.77
2018-03-28T11:12:45.585Z,94580.23
2018-03-28T11:15:12.244Z,94569.55
2018-03-28T11:17:40.278Z,94572.82
2018-03-28T11:20:05.675Z,94571.36
2018-03-28T11:22:33.391Z,94571.44
2018-03-28T11:25:00.049Z,94572.00
2018-03-28T11:27:27.900Z,94566.69
2018-03-28T11:29:54.533Z,94566.96
2018-03-28T11:32:21.177Z,94557.85
2018-03-28T11:34:47.806Z,94555.98
2018-03-28T11:37:14.524Z,94555.52
2018-03-28T11:39:41.287Z,94552.84
2018-03-28T11:42:10.680Z,94547.96
2018-03-28T11:44:37.455Z,94545.00
2018-03-28T11:47:04.171Z,94544.28
2018-03-28T11:49:30.877Z,94544.66
2018-03-28T11:51:57.621Z,94541.57
2018-03-28T11:54:24.259Z,94534.64
2018-03-28T11:56:50.928Z,94531.30
2018-03-28T11:59:17.532Z,94524.84
2018-03-28T12:01:44.287Z,94525.89
2018-03-28T12:04:11.006Z,94522.16
2018-03-28T12:06:37.640Z,94517.53
2018-03-28T12:09:04.250Z,94519.82
2018-03-28T12:11:30.981Z,94517.12
2018-03-28T12:13:57.649Z,94510.09
2018-03-28T12:16:25.771Z,94507.02
2018-03-28T12:18:51.192Z,94505.06
2018-03-28T12:21:17.868Z,94493.58
2018-03-28T12:23:44.478Z,94497.91
2018-03-28T12:26:11.132Z,94495.69
2018-03-28T12:28:37.825Z,94497.42
2018-03-28T12:31:04.570Z,94495.30
2018-03-28T12:33:31.381Z,94495.61
2018-03-28T12:35:58.104Z,94490.70
2018-03-28T12:38:24.853Z,94491.55
2018-03-28T12:40:53.570Z,94489.36
2018-03-28T12:43:20.259Z,94483.58
2018-03-28T12:45:48.723Z,94489.36
2018-03-28T12:48:13.640Z,94489.52
2018-03-28T12:50:40.359Z,94485.53
2018-03-28T12:53:07.081Z,94479.30
2018-03-28T12:55:33.833Z,94483.58
2018-03-28T12:58:00.570Z,94475.55
2018-03-28T13:00:27.198Z,94472.98
2018-03-28T13:02:53.930Z,94474.05
2018-03-28T13:05:20.638Z,94472.98
2018-03-28T13:07:47.275Z,94459.11
2018-03-28T13:10:14.362Z,94467.79
2018-03-28T13:12:41.102Z,94468.13
2018-03-28T13:15:08.091Z,94466.26
2018-03-28T13:17:34.852Z,94467.51
2018-03-28T13:20:01.572Z,94465.47
2018-03-28T13:22:28.278Z,94455.48
2018-03-28T13:24:54.927Z,94448.87
2018-03-28T13:27:23.081Z,94448.95
2018-03-28T13:29:48.229Z,94453.80
2018-03-28T13:32:14.932Z,94450.56
2018-03-28T13:34:41.606Z,94455.53
2018-03-28T13:37:08.206Z,94454.27
2018-03-28T13:39:35.341Z,94456.41
2018-03-28T13:42:02.019Z,94456.17
2018-03-28T13:44:28.657Z,94455.42
2018-03-28T13:46:55.299Z,94456.28
2018-03-28T13:49:23.436Z,94455.75
2018-03-28T13:51:53.488Z,94449.48
2018-03-28T13:54:20.166Z,94456.34
2018-03-28T13:56:46.782Z,94453.63
2018-03-28T13:59:16.129Z,94457.67
2018-03-28T14:01:42.780Z,94452.47
2018-03-28T14:04:09.380Z,94455.39
2018-03-28T14:06:36.094Z,94458.63
2018-03-28T14:09:02.694Z,94455.20
2018-03-28T14:11:30.116Z,94448.64
2018-03-28T14:13:56.713Z,94446.11
2018-03-28T14:16:23.373Z,94442.84
2018-03-28T14:18:50.025Z,94443.19
2018-03-28T14:21:16.716Z,94444.47
2018-03-28T14:23:43.322Z,94441.53
2018-03-28T14:26:09.964Z,94445.19
2018-03-28T14:28:38.105Z,94444.81
2018-03-28T14:31:03.301Z,94446.20
2018-03-28T14:33:30.088Z,94447.75
2018-03-28T14:35:56.702Z,94444.56
2018-03-28T14:38:23.334Z,94444.44
2018-03-28T14:40:50.008Z,94440.88
2018-03-28T14:43:16.635Z,94442.19
2018-03-28T14:45:43.338Z,94442.42
2018-03-28T14:48:10.007Z,94442.16
2018-03-28T14:50:36.662Z,94444.56
2018-03-28T14:53:03.287Z,94440.23
2018-03-28T14:55:29.937Z,94440.58
2018-03-28T14:57:56.582Z,94445.21
2018-03-28T15:00:24.554Z,94443.24
2018-03-28T15:02:49.847Z,94437.51
2018-03-28T15:05:16.519Z,94440.36
2018-03-28T15:07:44.158Z,94440.70
2018-03-28T15:10:10.762Z,94446.08
2018-03-28T15:12:38.463Z,94439.88
2018-03-28T15:15:04.048Z,94447.61
2018-03-28T15:17:30.713Z,94442.77
2018-03-28T15:19:57.386Z,94444.58
2018-03-28T15:22:24.140Z,94444.72
2018-03-28T15:24:50.816Z,94451.56
2018-03-28T15:27:17.455Z,94447.91
2018-03-28T15:29:44.085Z,94452.73
2018-03-28T15:32:10.730Z,94447.73
2018-03-28T15:34:37.359Z,94449.50
2018-03-28T15:37:05.304Z,94449.20
2018-03-28T15:39:30.692Z,94455.09
2018-03-28T15:41:58.288Z,94453.06
2018-03-28T15:44:23.915Z,94456.64
2018-03-28T15:46:50.559Z,94451.91
2018-03-28T15:49:17.307Z,94457.63
2018-03-28T15:51:44.041Z,94450.48
2018-03-28T15:54:13.804Z,94456.88
2018-03-28T15:56:40.478Z,94453.63
2018-03-28T15:59:07.096Z,94450.10
2018-03-28T16:01:33.948Z,94452.54
2018-03-28T16:04:00.664Z,94446.34
2018-03-28T16:06:27.444Z,94448.48
2018-03-28T16:08:54.179Z,94451.98
2018-03-28T16:11:20.825Z,94454.00
2018-03-28T16:13:47.467Z,94453.44
2018-03-28T16:16:14.164Z,94454.98
2018-03-28T16:18:40.811Z,94453.78
2018-03-28T16:21:07.439Z,94456.45
2018-03-28T16:23:34.127Z,94468.63
2018-03-28T16:26:00.758Z,94474.41
2018-03-28T16:28:27.452Z,94473.17
2018-03-28T16:30:56.273Z,94474.38
2018-03-28T16:33:26.825Z,94469.56
2018-03-28T16:35:53.513Z,94471.09
2018-03-28T16:38:20.201Z,94468.80
2018-03-28T16:40:46.805Z,94473.45
2018-03-28T16:43:13.445Z,94468.23
2018-03-28T16:45:41.430Z,94472.33
2018-03-28T16:48:06.776Z,94485.07
2018-03-28T16:50:34.393Z,94476.55
2018-03-28T16:53:00.032Z,94476.46
2018-03-28T16:55:26.674Z,94477.51
2018-03-28T16:57:53.383Z,94480.00
2018-03-28T17:00:19.992Z,94478.08
2018-03-28T17:02:49.441Z,94483.53
2018-03-28T17:05:16.162Z,94482.73
2018-03-28T17:07:45.111Z,94485.14
2018-03-28T17:10:11.737Z,94491.08
2018-03-28T17:12:38.352Z,94489.75
2018-03-28T17:15:05.001Z,94489.23
2018-03-28T17:17:31.775Z,94487.47
2018-03-28T17:19:58.462Z,94490.52
2018-03-28T17:22:25.129Z,94490.41
2018-03-28T17:24:51.857Z,94493.86
2018-03-28T17:27:18.533Z,94489.23
2018-03-28T17:29:45.176Z,94493.30
2018-03-28T17:32:11.910Z,94498.30
2018-03-28T17:34:38.552Z,94503.41
2018-03-28T17:37:08.613Z,94507.96
2018-03-28T17:39:37.205Z,94513.60
2018-03-28T17:42:01.856Z,94513.49
2018-03-28T17:44:28.498Z,94527.70
2018-03-28T17:46:55.131Z,94533.16
2018-03-28T17:49:21.810Z,94529.51
2018-03-28T17:51:52.325Z,94540.64
2018-03-28T17:54:19.325Z,94548.71
2018-03-28T17:56:44.571Z,94546.00
2018-03-28T17:59:11.248Z,94546.22
2018-03-28T18:01:38.056Z,94555.55
2018-03-28T18:04:04.691Z,94560.03
2018-03-28T18:06:31.328Z,94566.01
2018-03-28T18:08:58.006Z,94567.63
2018-03-28T18:11:24.737Z,94564.31
2018-03-28T18:13:51.374Z,94562.81
2018-03-28T18:16:18.042Z,94556.12
2018-03-28T18:18:44.619Z,94562.12
2018-03-28T18:21:11.353Z,94571.53
2018-03-28T18:23:38.036Z,94566.83
2018-03-28T18:26:04.635Z,94572.17
2018-03-28T18:28:31.297Z,94569.66
2018-03-28T18:30:58.000Z,94576.56
2018-03-28T18:33:24.750Z,94571.34
2018-03-28T18:35:51.414Z,94574.80
2018-03-28T18:38:18.027Z,94574.42
2018-03-28T18:40:44.821Z,94581.80
2018-03-28T18:43:11.427Z,94585.24
2018-03-28T18:45:41.077Z,94583.98
2018-03-28T18:48:07.730Z,94583.73
2018-03-28T18:50:34.392Z,94587.20
2018-03-28T18:53:01.050Z,94586.19
2018-03-28T18:55:27.740Z,94594.91
2018-03-28T18:57:55.794Z,94585.44
2018-03-28T19:00:21.064Z,94590.73
2018-03-28T19:02:47.788Z,94597.09
2018-03-28T19:05:14.466Z,94598.86
2018-03-28T19:07:41.081Z,94600.05
2018-03-28T19:10:07.773Z,94595.92
2018-03-28T19:12:34.449Z,94597.47
2018-03-28T19:15:01.058Z,94598.11
2018-03-28T19:17:27.825Z,94599.79
2018-03-28T19:19:54.430Z,94599.56
2018-03-28T19:22:23.267Z,94608.55
2018-03-28T19:24:47.841Z,94605.39
2018-03-28T19:27:14.521Z,94604.67
2018-03-28T19:29:41.193Z,94608.23
2018-03-28T19:32:07.798Z,94607.98
2018-03-28T19:34:34.473Z,94598.36
2018-03-28T19:37:01.112Z,94602.41
2018-03-28T19:39:29.985Z,94601.78
2018-03-28T19:41:54.450Z,94595.20
2018-03-28T19:44:21.160Z,94604.45
2018-03-28T19:46:48.795Z,94593.50
2018-03-28T19:49:15.510Z,94593.50
2018-03-28T19:51:42.166Z,94594.58
2018-03-28T19:54:08.887Z,94592.00
2018-03-28T19:56:36.506Z,94586.59
2018-03-28T19:59:02.246Z,94584.56
2018-03-28T20:01:28.857Z,94586.23
2018-03-28T20:03:55.533Z,94585.31
2018-03-28T20:06:22.162Z,94583.98
2018-03-28T20:08:56.880Z,94575.27
2018-03-28T20:11:23.574Z,94587.63
2018-03-28T20:13:50.215Z,94588.27
2018-03-28T20:16:16.855Z,94580.56
2018-03-28T20:18:43.489Z,94579.93
2018-03-28T20:21:10.141Z,94574.84
2018-03-28T20:23:36.905Z,94574.84
2018-03-28T20:26:03.524Z,94577.19
2018-03-28T20:28:30.192Z,94574.96
2018-03-28T20:30:56.839Z,94581.16
2018-03-28T20:33:23.569Z,94577.36
2018-03-28T20:35:52.970Z,94579.51
2018-03-28T20:38:21.247Z,94580.03
2018-03-28T20:40:49.018Z,94583.75
2018-03-28T20:43:15.652Z,94578.45
2018-03-28T20:45:42.296Z,94582.73
2018-03-28T20:48:08.922Z,94584.47
2018-03-28T20:50:35.638Z,94573.91
2018-03-28T20:53:02.274Z,94572.41
2018-03-28T20:55:29.051Z,94564.99
2018-03-28T20:57:55.677Z,94565.86
2018-03-28T21:00:22.317Z,94571.19
2018-03-28T21:02:48.997Z,94564.47
2018-03-28T21:05:15.681Z,94568.91
2018-03-28T21:07:42.389Z,94566.77
2018-03-28T21:10:09.024Z,94569.02
2018-03-28T21:12:35.664Z,94563.72
2018-03-28T21:15:02.346Z,94571.05
2018-03-28T21:17:28.973Z,94571.58
2018-03-28T21:19:55.581Z,94558.05
2018-03-28T21:22:22.304Z,94562.14
2018-03-28T21:24:48.893Z,94563.15
2018-03-28T21:27:17.656Z,94556.73
2018-03-28T21:29:42.419Z,94557.48
2018-03-28T21:32:10.557Z,94545.08
2018-03-28T21:34:35.810Z,94544.48
2018-03-28T21:37:02.423Z,94544.86
2018-03-28T21:39:29.046Z,94539.85
2018-03-28T21:41:55.774Z,94538.73
2018-03-28T21:44:22.530Z,94543.91
2018-03-28T21:46:49.194Z,94541.06
2018-03-28T21:49:15.827Z,94537.59
2018-03-28T21:51:42.429Z,94539.62
2018-03-28T21:54:09.100Z,94537.59
2018-03-28T21:56:38.341Z,94532.86
2018-03-28T21:59:04.942Z,94530.83
2018-03-28T22:01:31.604Z,94536.09
2018-03-28T22:03:58.249Z,94530.53
2018-03-28T22:06:24.936Z,94530.45
2018-03-28T22:08:51.533Z,94535.00
2018-03-28T22:11:18.312Z,94538.23
2018-03-28T22:13:46.007Z,94536.91
2018-03-28T22:16:12.647Z,94528.47
2018-03-28T22:18:39.256Z,94534.33
2018-03-28T22:21:05.925Z,94535.33
2018-03-28T22:23:32.568Z,94538.90
2018-03-28T22:25:59.168Z,94532.88
2018-03-28T22:28:25.805Z,94536.13
2018-03-28T22:30:52.443Z,94532.17
2018-03-28T22:33:19.117Z,94529.17
2018-03-28T22:35:45.750Z,94531.45
2018-03-28T22:38:12.461Z,94545.02
2018-03-28T22:40:39.131Z,94535.70
2018-03-28T22:43:05.753Z,94536.38
2018-03-28T22:45:32.390Z,94536.45
2018-03-28T22:47:59.074Z,94534.95
2018-03-28T22:50:25.713Z,94538.97
2018-03-28T22:52:52.401Z,94538.02
2018-03-28T22:55:19.079Z,94543.36
2018-03-28T22:57:45.676Z,94544.67
2018-03-28T23:00:12.354Z,94540.16
2018-03-28T23:02:40.272Z,94546.13
2018-03-28T23:05:05.605Z,94538.81
2018-03-28T23:07:32.288Z,94538.67
2018-03-28T23:10:02.062Z,94532.79
2018-03-28T23:12:28.686Z,94531.93
2018-03-28T23:14:57.989Z,94532.30
2018-03-28T23:17:24.591Z,94536.53
2018-03-28T23:19:53.865Z,94541.61
2018-03-28T23:22:20.510Z,94543.55
2018-03-28T23:24:47.134Z,94554.98
2018-03-28T23:27:16.665Z,94567.55
2018-03-28T23:29:43.311Z,94570.34
2018-03-28T23:32:10.006Z,94567.37
2018-03-28T23:34:41.348Z,94568.69
2018-03-28T23:37:03.282Z,94560.05
2018-03-28T23:39:29.922Z,94562.52
2018-03-28T23:41:56.678Z,94556.58
2018-03-28T23:44:23.328Z,94561.33
2018-03-28T23:46:50.059Z,94558.92
2018-03-28T23:49:16.728Z,94559.94
2018-03-28T23:51:43.443Z,94564.42
2018-03-28T23:54:10.078Z,94565.18
2018-03-28T23:56:36.687Z,94563.64
2018-03-28T23:59:03.359Z,94558.61
